Terminal Aerodrome Forecast
Issued by NWS Charleston, WV

Current Version | Previous Version | Graphics & Text | Print | Product List | Glossary On
Versions: 1 2 3 4 5 6 7 8 9 10 11 12 13 14 15 16 17 18 19 20 21 22 23 24 25 26
000
FTUS41 KRLX 241739 AAB
TAFEKN
TAF AMD
KEKN 241739Z 2418/2518 27006KT P6SM SCT040
     FM242100 27007KT P6SM SHRA VCTS BKN025CB
     FM250000 VRB03KT P6SM SCT025
     FM250800 00000KT 1/4SM FG BKN001
     FM251300 00000KT 4SM BR BKN005
     FM251400 31005KT P6SM BKN025=

USA.gov is the U.S. government's official web portal to all federal, state and local government web resources and services.